Time;durP1;ratioP1;P1;durP2;ratioP2;P2;SDS_P1;SDS_P2;PMS_P1;PMS_P2;Temp;Humidity;BMP_temperature;BMP_pressure;BME280_temperature;BME280_humidity;BME280_pressure;Samples;Min_cycle;Max_cycle;Signal;HPM_P1;HPM_P2
2022/03/07 00:01:55;;;;;;;10.27;5.65;;;-0.20;99.90;;;;;;4986219;28;20038;-84
2022/03/07 00:04:20;;;;;;;10.43;5.43;;;-0.30;99.90;;;;;;4990843;28;20044;-83
2022/03/07 00:06:49;;;;;;;10.02;5.28;;;-0.30;99.90;;;;;;4997319;28;20450;-83
2022/03/07 00:09:15;;;;;;;11.25;5.80;;;-0.40;99.90;;;;;;4981462;28;20056;-83
2022/03/07 00:11:42;;;;;;;11.63;5.70;;;-0.40;99.90;;;;;;5005542;28;20041;-84
2022/03/07 00:14:08;;;;;;;10.38;5.80;;;-0.40;99.90;;;;;;4980548;28;20137;-84
2022/03/07 00:16:34;;;;;;;11.88;5.65;;;-0.40;99.90;;;;;;5007902;28;20120;-84
2022/03/07 00:19:00;;;;;;;9.55;4.72;;;-0.50;99.90;;;;;;4978590;28;20048;-84
2022/03/07 00:21:26;;;;;;;12.18;6.05;;;-0.50;99.90;;;;;;5003910;28;20053;-84
2022/03/07 00:23:51;;;;;;;11.95;5.93;;;-0.50;99.90;;;;;;4999029;28;20045;-84
2022/03/07 00:26:18;;;;;;;10.18;5.80;;;-0.60;99.90;;;;;;5010244;28;20509;-83
2022/03/07 00:28:44;;;;;;;9.52;4.97;;;-0.60;99.90;;;;;;5023645;28;20088;-84
2022/03/07 00:31:10;;;;;;;10.35;5.00;;;-0.70;99.90;;;;;;5026155;28;20045;-84
2022/03/07 00:33:36;;;;;;;10.32;5.40;;;-0.70;99.90;;;;;;4991283;28;20128;-83
2022/03/07 00:36:03;;;;;;;10.57;5.47;;;-0.80;99.90;;;;;;5002873;28;20164;-83
2022/03/07 00:38:29;;;;;;;10.23;5.15;;;-0.80;99.90;;;;;;5000821;28;20053;-83
2022/03/07 00:40:54;;;;;;;9.05;4.75;;;-0.80;99.90;;;;;;5001197;28;20053;-84
2022/03/07 00:43:21;;;;;;;11.05;5.25;;;-0.80;99.90;;;;;;4996760;28;20410;-82
2022/03/07 00:45:47;;;;;;;11.10;4.80;;;-0.90;99.90;;;;;;5008057;28;20372;-84
2022/03/07 00:48:13;;;;;;;12.27;5.53;;;-0.90;99.90;;;;;;5009773;28;20123;-84
2022/03/07 00:50:42;;;;;;;11.25;5.43;;;-0.90;99.90;;;;;;5023467;28;20179;-84
2022/03/07 00:53:16;;;;;;;10.10;5.63;;;-0.90;99.90;;;;;;5018971;28;20080;-84
2022/03/07 00:55:42;;;;;;;10.90;5.60;;;-0.90;99.90;;;;;;4983316;28;20376;-84
2022/03/07 00:58:08;;;;;;;10.55;5.47;;;-0.90;99.90;;;;;;5003457;28;20056;-84
2022/03/07 01:00:34;;;;;;;12.65;5.45;;;-0.90;99.90;;;;;;4981290;28;20050;-84
2022/03/07 01:03:00;;;;;;;11.75;5.60;;;-1.00;99.90;;;;;;5003146;28;20096;-84
2022/03/07 01:05:26;;;;;;;9.55;4.95;;;-1.00;99.90;;;;;;4995231;28;20037;-84
2022/03/07 01:07:51;;;;;;;11.32;5.28;;;-1.00;99.90;;;;;;5000738;28;20041;-84
2022/03/07 01:10:17;;;;;;;11.10;5.30;;;-1.00;99.90;;;;;;5007869;28;20045;-84
2022/03/07 01:12:42;;;;;;;12.20;5.25;;;-1.10;99.90;;;;;;4984523;28;20042;-84
2022/03/07 01:15:09;;;;;;;11.95;5.45;;;-1.10;99.90;;;;;;5012850;28;20125;-84
2022/03/07 01:17:36;;;;;;;11.85;5.70;;;-1.10;99.90;;;;;;5001903;28;20394;-84
2022/03/07 01:20:02;;;;;;;10.35;5.72;;;-1.10;99.90;;;;;;5007621;28;20431;-84
2022/03/07 01:22:28;;;;;;;11.25;5.50;;;-1.20;99.90;;;;;;5003101;28;20129;-84
2022/03/07 01:24:53;;;;;;;10.90;5.53;;;-1.20;99.90;;;;;;4987311;28;20145;-83
2022/03/07 01:27:19;;;;;;;11.70;5.55;;;-1.20;99.90;;;;;;4997604;28;20045;-84
2022/03/07 01:29:44;;;;;;;11.23;5.30;;;-1.20;99.90;;;;;;5011364;28;20042;-84
2022/03/07 01:32:10;;;;;;;11.57;5.22;;;-1.20;99.90;;;;;;5004535;28;20084;-84
2022/03/07 01:34:36;;;;;;;11.10;5.38;;;-1.20;99.90;;;;;;5000257;28;20081;-84
2022/03/07 01:37:01;;;;;;;11.00;5.20;;;-1.30;99.90;;;;;;5021642;28;20045;-84
2022/03/07 01:39:27;;;;;;;11.18;5.80;;;-1.30;99.90;;;;;;5019471;28;20044;-84
2022/03/07 01:41:52;;;;;;;11.60;5.35;;;-1.30;99.90;;;;;;4992530;28;20777;-84
2022/03/07 01:44:20;;;;;;;9.50;4.97;;;-1.30;99.90;;;;;;5024563;28;20058;-84
2022/03/07 01:46:47;;;;;;;8.85;4.90;;;-1.30;99.90;;;;;;4999339;28;20148;-84
2022/03/07 01:49:13;;;;;;;9.32;5.40;;;-1.40;99.90;;;;;;5022891;28;20092;-84
2022/03/07 01:51:41;;;;;;;11.63;5.85;;;-1.40;99.90;;;;;;4985684;28;20453;-84
2022/03/07 01:54:10;;;;;;;11.45;5.85;;;-1.40;99.90;;;;;;5006794;28;20492;-84
2022/03/07 01:56:36;;;;;;;10.57;5.43;;;-1.40;99.90;;;;;;5000668;28;20364;-84
2022/03/07 01:59:03;;;;;;;10.57;5.65;;;-1.50;99.90;;;;;;5023668;28;20044;-84
2022/03/07 02:01:29;;;;;;;11.25;5.80;;;-1.50;99.90;;;;;;5005124;28;20057;-84
2022/03/07 02:03:54;;;;;;;10.90;5.45;;;-1.40;99.90;;;;;;4993889;28;20045;-85
2022/03/07 02:06:21;;;;;;;11.70;6.20;;;-1.50;99.90;;;;;;5006949;28;20398;-83
2022/03/07 02:08:48;;;;;;;10.35;5.72;;;-1.50;99.90;;;;;;4988791;28;20075;-84
2022/03/07 02:11:15;;;;;;;10.45;6.05;;;-1.50;99.90;;;;;;5028499;28;20045;-84
2022/03/07 02:13:41;;;;;;;10.88;5.72;;;-1.50;99.90;;;;;;5001531;28;20053;-84
2022/03/07 02:16:06;;;;;;;13.02;6.53;;;-1.50;99.90;;;;;;5004973;28;20052;-84
2022/03/07 02:18:32;;;;;;;12.57;6.43;;;-1.50;99.90;;;;;;5030825;28;20034;-84
2022/03/07 02:21:07;;;;;;;10.90;5.35;;;-1.50;99.90;;;;;;5027462;28;20042;-84
2022/03/07 02:23:32;;;;;;;10.45;6.10;;;-1.50;99.90;;;;;;5028403;28;20046;-84
2022/03/07 02:25:58;;;;;;;10.68;5.57;;;-1.50;99.90;;;;;;4994569;28;20048;-84
2022/03/07 02:28:24;;;;;;;14.43;6.47;;;-1.60;99.90;;;;;;5030217;28;20120;-85
2022/03/07 02:30:51;;;;;;;11.27;5.88;;;-1.60;99.90;;;;;;5000236;28;20037;-84
2022/03/07 02:33:17;;;;;;;11.60;6.10;;;-1.60;99.90;;;;;;5013125;28;20053;-84
2022/03/07 02:35:43;;;;;;;16.80;10.25;;;-1.60;99.90;;;;;;5004974;28;20144;-84
2022/03/07 02:38:14;;;;;;;14.93;8.45;;;-1.60;99.90;;;;;;5005774;28;20124;-85
2022/03/07 02:40:40;;;;;;;18.33;7.82;;;-1.60;99.90;;;;;;5009769;28;20048;-84
2022/03/07 02:43:06;;;;;;;19.75;9.88;;;-1.60;99.90;;;;;;4998627;28;20433;-84
2022/03/07 02:45:32;;;;;;;21.67;12.00;;;-1.60;99.90;;;;;;5005908;28;20138;-84
2022/03/07 02:47:57;;;;;;;17.00;9.40;;;-1.60;99.90;;;;;;5001051;28;20042;-84
2022/03/07 02:50:23;;;;;;;21.58;11.25;;;-1.70;99.90;;;;;;5010858;28;20048;-84
2022/03/07 02:52:48;;;;;;;21.75;11.48;;;-1.70;99.90;;;;;;5007454;28;20042;-84
2022/03/07 02:55:14;;;;;;;20.38;10.25;;;-1.70;99.90;;;;;;5009265;28;20049;-85
2022/03/07 02:57:40;;;;;;;20.55;10.50;;;-1.70;99.90;;;;;;5008557;28;20095;-85
2022/03/07 03:00:06;;;;;;;17.83;10.60;;;-1.70;99.90;;;;;;4989542;28;20064;-85
2022/03/07 03:02:31;;;;;;;17.70;9.00;;;-1.80;99.90;;;;;;5007330;28;20132;-84
2022/03/07 03:04:57;;;;;;;16.75;8.35;;;-1.80;99.90;;;;;;4985396;28;20050;-84
2022/03/07 03:07:22;;;;;;;14.70;8.02;;;-1.80;99.90;;;;;;5028892;28;20049;-83
2022/03/07 03:09:48;;;;;;;13.57;6.65;;;-1.80;99.90;;;;;;5006660;28;20052;-83
2022/03/07 03:12:14;;;;;;;14.02;7.05;;;-1.80;99.90;;;;;;5005706;28;20077;-84
2022/03/07 03:14:40;;;;;;;13.68;6.80;;;-1.80;99.90;;;;;;4983113;28;20136;-84
2022/03/07 03:17:06;;;;;;;12.15;5.72;;;-1.80;99.90;;;;;;4993320;28;20046;-84
2022/03/07 03:19:32;;;;;;;10.25;5.38;;;-1.90;99.90;;;;;;4982718;28;20037;-83
2022/03/07 03:21:57;;;;;;;12.65;5.13;;;-1.90;99.90;;;;;;5002887;28;20155;-84
2022/03/07 03:24:23;;;;;;;9.90;5.45;;;-1.90;99.90;;;;;;4998456;28;20037;-84
2022/03/07 03:26:48;;;;;;;11.60;5.30;;;-1.90;99.90;;;;;;5024052;28;20096;-84
2022/03/07 03:29:14;;;;;;;9.63;5.07;;;-1.90;99.90;;;;;;5007807;28;20099;-83
2022/03/07 03:31:40;;;;;;;11.57;5.43;;;-1.90;99.90;;;;;;4994577;28;20037;-83
2022/03/07 03:34:05;;;;;;;9.90;5.15;;;-1.90;99.90;;;;;;5009411;28;20045;-83
2022/03/07 03:36:31;;;;;;;13.02;5.78;;;-1.90;99.90;;;;;;5000822;28;20038;-84
2022/03/07 03:38:57;;;;;;;9.90;5.30;;;-1.90;99.90;;;;;;5004633;28;20049;-84
2022/03/07 03:41:22;;;;;;;10.55;5.05;;;-2.00;99.90;;;;;;4983246;28;20112;-83
2022/03/07 03:43:48;;;;;;;10.43;4.82;;;-1.90;99.90;;;;;;4992644;28;20513;-83
2022/03/07 03:46:13;;;;;;;9.93;5.13;;;-2.00;99.90;;;;;;4986273;28;20450;-83
2022/03/07 03:48:39;;;;;;;10.65;5.53;;;-2.00;99.90;;;;;;4989275;28;20508;-83
2022/03/07 03:51:04;;;;;;;10.68;5.88;;;-2.00;99.90;;;;;;5003805;28;20033;-83
2022/03/07 03:53:30;;;;;;;12.15;6.05;;;-2.00;99.90;;;;;;5004044;28;20046;-84
2022/03/07 03:55:55;;;;;;;11.07;5.65;;;-2.00;99.90;;;;;;5022420;28;20061;-83
2022/03/07 03:58:21;;;;;;;12.57;6.00;;;-2.00;99.90;;;;;;5010372;28;20044;-84
2022/03/07 04:00:46;;;;;;;10.35;5.57;;;-2.00;99.90;;;;;;4997844;28;20066;-84
2022/03/07 04:03:12;;;;;;;11.75;5.32;;;-2.00;99.90;;;;;;4992229;28;20042;-84
2022/03/07 04:05:37;;;;;;;9.63;4.65;;;-2.10;99.90;;;;;;5003648;28;20045;-84
2022/03/07 04:08:03;;;;;;;11.35;5.63;;;-2.10;99.90;;;;;;5001779;28;20037;-84
2022/03/07 04:10:29;;;;;;;10.88;6.20;;;-2.10;99.90;;;;;;5002031;28;20047;-84
2022/03/07 04:12:54;;;;;;;11.32;5.32;;;-2.10;99.90;;;;;;4991821;28;20053;-84
2022/03/07 04:15:20;;;;;;;12.52;6.35;;;-2.10;99.90;;;;;;4993673;28;20145;-84
2022/03/07 04:17:45;;;;;;;10.93;6.35;;;-2.10;99.90;;;;;;4994445;28;20050;-84
2022/03/07 04:20:13;;;;;;;14.55;7.20;;;-2.10;99.90;;;;;;4979791;28;20044;-84
2022/03/07 04:22:39;;;;;;;12.00;6.13;;;-2.20;99.90;;;;;;5028406;28;20042;-84
2022/03/07 04:25:06;;;;;;;15.35;6.47;;;-2.10;99.90;;;;;;5027434;28;20500;-84
2022/03/07 04:27:31;;;;;;;11.18;6.38;;;-2.10;99.90;;;;;;5017565;28;20045;-84
2022/03/07 04:29:57;;;;;;;13.88;8.00;;;-2.20;99.90;;;;;;5015248;28;20045;-84
2022/03/07 04:32:23;;;;;;;10.75;5.60;;;-2.10;99.90;;;;;;5011421;28;20102;-84
2022/03/07 04:34:49;;;;;;;14.23;6.75;;;-2.10;99.90;;;;;;5000701;28;20479;-84
2022/03/07 04:37:14;;;;;;;12.98;7.25;;;-2.10;99.90;;;;;;5006038;28;20073;-84
2022/03/07 04:39:40;;;;;;;12.77;6.30;;;-2.10;99.90;;;;;;5002429;28;20072;-84
2022/03/07 04:42:06;;;;;;;12.63;6.65;;;-2.10;99.90;;;;;;4993859;28;20069;-85
2022/03/07 04:44:32;;;;;;;13.68;6.32;;;-2.10;99.90;;;;;;4983924;28;20041;-84
2022/03/07 04:46:57;;;;;;;12.05;6.63;;;-2.10;99.90;;;;;;5026055;28;20111;-84
2022/03/07 04:49:23;;;;;;;12.00;6.05;;;-2.10;99.90;;;;;;5026089;28;20038;-84
2022/03/07 04:51:48;;;;;;;13.50;6.30;;;-2.10;99.90;;;;;;5009165;28;20045;-84
2022/03/07 04:54:15;;;;;;;11.90;5.72;;;-2.10;99.90;;;;;;5020799;28;20124;-84
2022/03/07 04:56:43;;;;;;;13.88;5.30;;;-2.10;99.90;;;;;;4986092;28;20048;-84
2022/03/07 04:59:12;;;;;;;12.02;6.13;;;-2.10;99.90;;;;;;5028807;28;20040;-84
2022/03/07 05:01:37;;;;;;;10.52;5.30;;;-2.10;99.90;;;;;;5028888;28;20507;-85
2022/03/07 05:04:04;;;;;;;13.85;6.45;;;-2.10;99.90;;;;;;4989262;28;20042;-84
2022/03/07 05:06:29;;;;;;;9.98;4.88;;;-2.10;99.90;;;;;;4981484;28;20052;-84
2022/03/07 05:08:55;;;;;;;12.27;5.57;;;-2.10;99.90;;;;;;4990711;28;20437;-84
2022/03/07 05:11:20;;;;;;;11.95;5.78;;;-2.10;99.90;;;;;;4991891;28;20042;-84
2022/03/07 05:13:46;;;;;;;13.05;6.47;;;-2.10;99.90;;;;;;5007840;28;20417;-85
2022/03/07 05:16:11;;;;;;;13.82;7.30;;;-2.10;99.90;;;;;;4981176;28;20045;-84
2022/03/07 05:18:37;;;;;;;14.50;7.05;;;-2.10;99.90;;;;;;5020442;28;20033;-84
2022/03/07 05:21:03;;;;;;;14.07;7.63;;;-2.10;99.90;;;;;;5010267;28;20042;-84
2022/03/07 05:23:28;;;;;;;14.18;7.45;;;-2.10;99.90;;;;;;5016453;28;20084;-84
2022/03/07 05:25:54;;;;;;;11.93;6.25;;;-2.10;99.90;;;;;;5007847;28;20086;-84
2022/03/07 05:28:19;;;;;;;12.20;6.75;;;-2.10;99.90;;;;;;4997498;28;20456;-84
2022/03/07 05:30:45;;;;;;;10.82;6.63;;;-2.00;99.90;;;;;;5021573;28;20042;-84
2022/03/07 05:33:11;;;;;;;14.90;8.27;;;-2.00;99.90;;;;;;4997610;28;20140;-84
2022/03/07 05:35:36;;;;;;;13.93;7.85;;;-1.90;99.90;;;;;;5006446;28;20116;-84
2022/03/07 05:38:02;;;;;;;13.13;7.00;;;-1.90;99.90;;;;;;5002533;28;20188;-84
2022/03/07 05:40:28;;;;;;;13.82;7.32;;;-1.70;99.90;;;;;;5009378;28;20037;-84
2022/03/07 05:42:54;;;;;;;13.45;7.38;;;-1.80;99.90;;;;;;4997403;28;20149;-84
2022/03/07 05:45:19;;;;;;;11.07;6.22;;;-1.70;99.90;;;;;;5008554;28;20049;-84
2022/03/07 05:47:45;;;;;;;12.18;6.78;;;-1.60;99.90;;;;;;5019224;28;20045;-84
2022/03/07 05:50:11;;;;;;;11.63;6.40;;;-1.60;99.90;;;;;;5021580;28;20467;-85
2022/03/07 05:52:37;;;;;;;11.93;6.40;;;-1.60;99.90;;;;;;5008650;28;20080;-85
2022/03/07 05:55:05;;;;;;;12.00;6.30;;;-1.60;99.90;;;;;;5000147;28;20065;-84
2022/03/07 05:57:31;;;;;;;12.48;6.50;;;-1.50;99.90;;;;;;5029549;28;20430;-84
2022/03/07 05:59:57;;;;;;;11.25;6.10;;;-1.50;99.90;;;;;;5012649;28;20045;-84
2022/03/07 06:02:22;;;;;;;14.82;7.72;;;-1.40;99.90;;;;;;5002763;28;20041;-85
2022/03/07 06:04:48;;;;;;;12.13;7.10;;;-1.40;99.90;;;;;;5003719;28;20061;-84
2022/03/07 06:07:13;;;;;;;16.38;7.47;;;-1.40;99.90;;;;;;4998732;28;20128;-85
2022/03/07 06:09:39;;;;;;;13.15;7.43;;;-1.40;99.90;;;;;;4997862;28;20049;-85
2022/03/07 06:12:06;;;;;;;12.85;6.43;;;-1.30;99.90;;;;;;4998283;28;20124;-85
2022/03/07 06:14:31;;;;;;;19.45;10.10;;;-1.30;99.90;;;;;;5009784;28;20053;-86
2022/03/07 06:16:57;;;;;;;14.57;7.97;;;-1.20;99.90;;;;;;4993419;28;20075;-85
2022/03/07 06:19:23;;;;;;;13.40;7.07;;;-1.20;99.90;;;;;;5000312;28;20077;-85
2022/03/07 06:21:48;;;;;;;14.82;7.85;;;-1.20;99.90;;;;;;4993249;28;20049;-85
2022/03/07 06:24:14;;;;;;;16.45;8.75;;;-1.20;99.90;;;;;;4984879;28;20497;-86
2022/03/07 06:26:39;;;;;;;16.25;8.93;;;-1.10;99.90;;;;;;4992971;28;20528;-86
2022/03/07 06:29:06;;;;;;;17.42;9.80;;;-1.10;99.90;;;;;;4993218;28;20433;-86
2022/03/07 06:31:32;;;;;;;20.83;10.15;;;-1.00;99.90;;;;;;5006151;28;20068;-86
2022/03/07 06:33:57;;;;;;;23.55;11.32;;;-1.00;99.90;;;;;;5007799;28;20053;-85
2022/03/07 06:36:23;;;;;;;17.17;9.32;;;-0.90;99.90;;;;;;5011971;28;20060;-84
2022/03/07 06:38:49;;;;;;;17.85;9.50;;;-0.90;99.90;;;;;;5031070;28;20084;-85
2022/03/07 06:41:14;;;;;;;18.42;10.93;;;-0.90;99.90;;;;;;5024198;28;20375;-84
2022/03/07 06:43:40;;;;;;;18.73;10.60;;;-0.80;99.90;;;;;;5011795;28;20045;-84
2022/03/07 06:46:06;;;;;;;20.13;11.93;;;-0.80;99.90;;;;;;5028043;28;20064;-86
2022/03/07 06:48:33;;;;;;;18.55;10.25;;;-0.70;99.90;;;;;;4985389;28;20063;-83
2022/03/07 06:50:58;;;;;;;18.10;10.20;;;-0.70;99.90;;;;;;5004996;28;20450;-85
2022/03/07 06:53:24;;;;;;;22.63;13.15;;;-0.60;99.90;;;;;;5008364;28;20136;-85
2022/03/07 06:55:51;;;;;;;19.38;11.05;;;-0.50;99.90;;;;;;5000785;28;20037;-85
2022/03/07 06:58:17;;;;;;;25.25;12.02;;;-0.50;99.90;;;;;;5004610;28;20439;-84
2022/03/07 07:00:43;;;;;;;20.50;12.10;;;-0.40;99.90;;;;;;4982953;28;20134;-84
2022/03/07 07:03:09;;;;;;;20.70;11.00;;;-0.40;99.90;;;;;;5004739;28;20049;-84
2022/03/07 07:05:34;;;;;;;23.02;13.07;;;-0.40;99.90;;;;;;4994859;28;20125;-84
2022/03/07 07:08:00;;;;;;;20.20;12.40;;;-0.30;99.90;;;;;;5003507;28;20072;-84
2022/03/07 07:10:25;;;;;;;21.15;12.35;;;-0.30;99.90;;;;;;5003958;28;20045;-83
2022/03/07 07:12:52;;;;;;;20.27;12.48;;;-0.30;99.90;;;;;;5025258;28;20049;-87
2022/03/07 07:15:18;;;;;;;21.30;12.65;;;-0.30;99.90;;;;;;4989256;28;20069;-86
2022/03/07 07:17:44;;;;;;;21.60;12.52;;;-0.30;99.90;;;;;;5004450;28;20041;-85
2022/03/07 07:20:11;;;;;;;19.70;11.60;;;-0.20;99.90;;;;;;4989879;28;20095;-85
2022/03/07 07:22:38;;;;;;;19.05;11.38;;;-0.20;99.90;;;;;;5007939;28;20064;-84
2022/03/07 07:25:05;;;;;;;19.95;11.55;;;-0.20;99.90;;;;;;5001492;28;20132;-84
2022/03/07 07:27:31;;;;;;;20.65;13.32;;;-0.10;99.90;;;;;;4987154;28;20125;-84
2022/03/07 07:29:56;;;;;;;22.30;13.93;;;-0.10;99.90;;;;;;5012246;28;20144;-84
2022/03/07 07:32:22;;;;;;;20.55;13.00;;;0.00;99.90;;;;;;4985518;28;20037;-84
2022/03/07 07:34:48;;;;;;;22.45;13.55;;;0.00;99.90;;;;;;5015906;28;20037;-85
2022/03/07 07:37:13;;;;;;;18.25;11.98;;;0.00;99.90;;;;;;5012306;28;20152;-84
2022/03/07 07:39:39;;;;;;;19.13;11.38;;;0.10;99.90;;;;;;5005162;28;20042;-84
2022/03/07 07:42:05;;;;;;;20.50;11.43;;;0.10;99.90;;;;;;5005011;28;20045;-84
2022/03/07 07:44:31;;;;;;;21.88;12.38;;;0.20;99.90;;;;;;5021517;28;20038;-84
2022/03/07 07:46:56;;;;;;;21.25;11.02;;;0.20;99.90;;;;;;4995417;28;20061;-86
2022/03/07 07:49:24;;;;;;;18.70;11.82;;;0.30;99.90;;;;;;5000909;28;20044;-84
2022/03/07 07:51:50;;;;;;;20.55;11.88;;;0.30;99.90;;;;;;4999163;28;20368;-85
2022/03/07 07:54:16;;;;;;;17.58;11.20;;;0.40;99.90;;;;;;5000765;28;20114;-85
2022/03/07 07:56:42;;;;;;;19.63;13.20;;;0.50;99.90;;;;;;4998991;28;20104;-84
2022/03/07 07:59:07;;;;;;;19.13;11.52;;;0.50;99.90;;;;;;4998482;28;20111;-84
2022/03/07 08:01:33;;;;;;;19.85;12.20;;;0.60;99.90;;;;;;4984103;28;20132;-84
2022/03/07 08:03:58;;;;;;;21.25;11.90;;;0.70;99.90;;;;;;4982174;28;20513;-84
2022/03/07 08:06:25;;;;;;;20.23;11.75;;;0.90;99.90;;;;;;4995993;28;20041;-84
2022/03/07 08:08:50;;;;;;;24.70;13.45;;;1.00;99.90;;;;;;5004178;28;20045;-84
2022/03/07 08:11:16;;;;;;;22.90;12.15;;;1.10;99.90;;;;;;4984841;28;20037;-84
2022/03/07 08:13:41;;;;;;;21.63;11.63;;;1.30;99.90;;;;;;5002744;28;20049;-84
2022/03/07 08:16:07;;;;;;;20.95;13.68;;;1.40;99.90;;;;;;5009130;28;20041;-84
2022/03/07 08:18:33;;;;;;;22.35;11.65;;;1.50;99.90;;;;;;5000273;28;20516;-84
2022/03/07 08:21:00;;;;;;;20.27;12.35;;;1.60;99.90;;;;;;5007284;28;20041;-84
2022/03/07 08:23:26;;;;;;;18.25;11.23;;;1.80;99.90;;;;;;5015172;28;20340;-84
2022/03/07 08:25:52;;;;;;;21.45;12.10;;;1.90;99.90;;;;;;5017029;28;20045;-85
2022/03/07 08:28:17;;;;;;;20.90;12.98;;;1.90;99.90;;;;;;5003375;28;20385;-88
2022/03/07 08:30:43;;;;;;;20.42;12.60;;;2.00;99.90;;;;;;5009007;28;20042;-86
2022/03/07 08:33:08;;;;;;;18.95;12.07;;;2.10;99.90;;;;;;4991250;28;20529;-87
2022/03/07 08:35:34;;;;;;;21.30;12.45;;;2.20;99.90;;;;;;4997716;28;20187;-86
2022/03/07 08:37:59;;;;;;;20.63;11.13;;;2.20;99.90;;;;;;5022617;28;20132;-86
2022/03/07 08:40:25;;;;;;;18.33;11.65;;;2.30;99.90;;;;;;5029479;28;20045;-86
2022/03/07 08:42:52;;;;;;;18.88;11.32;;;2.30;99.90;;;;;;5002482;28;20162;-86
2022/03/07 08:45:18;;;;;;;20.67;12.65;;;2.40;99.90;;;;;;5007502;28;20038;-87
2022/03/07 08:47:43;;;;;;;19.25;12.00;;;2.50;99.90;;;;;;5002145;28;20490;-86
2022/03/07 08:50:10;;;;;;;17.27;11.43;;;2.50;99.90;;;;;;4990412;28;20029;-86
2022/03/07 08:52:37;;;;;;;25.40;15.57;;;2.60;99.90;;;;;;5015268;28;20074;-87
2022/03/07 08:55:04;;;;;;;25.55;17.23;;;2.60;99.90;;;;;;4984945;28;20033;-85
2022/03/07 08:57:30;;;;;;;23.27;14.70;;;2.70;99.90;;;;;;4997312;28;20379;-87
2022/03/07 08:59:55;;;;;;;27.63;21.38;;;2.80;99.90;;;;;;4990971;28;20172;-87
2022/03/07 09:02:21;;;;;;;22.33;12.20;;;2.90;99.90;;;;;;4999887;28;20057;-87
2022/03/07 09:04:46;;;;;;;25.90;18.67;;;3.00;99.90;;;;;;4993578;28;20050;-87
2022/03/07 09:07:12;;;;;;;16.90;10.45;;;3.10;99.90;;;;;;5014374;28;20128;-86
2022/03/07 09:09:40;;;;;;;18.02;11.48;;;3.30;99.90;;;;;;5031021;28;20049;-87
2022/03/07 09:12:08;;;;;;;16.02;9.32;;;3.50;99.90;;;;;;5032022;28;20053;-87
2022/03/07 09:14:34;;;;;;;15.07;9.23;;;3.60;99.90;;;;;;5013409;28;20079;-86
2022/03/07 09:17:01;;;;;;;16.73;9.43;;;3.80;99.90;;;;;;5010999;28;20041;-86
2022/03/07 09:19:27;;;;;;;18.60;13.85;;;3.90;99.90;;;;;;5010909;28;20128;-86
2022/03/07 09:21:53;;;;;;;10.30;5.32;;;4.10;99.90;;;;;;5030867;28;20087;-86
2022/03/07 09:24:19;;;;;;;13.10;7.20;;;4.20;99.90;;;;;;4992279;28;20042;-87
2022/03/07 09:26:45;;;;;;;15.65;8.45;;;4.30;99.90;;;;;;5014272;28;20121;-85
2022/03/07 09:29:11;;;;;;;14.13;7.63;;;4.40;99.90;;;;;;5002839;28;20041;-86
2022/03/07 09:31:37;;;;;;;13.20;6.78;;;4.50;99.90;;;;;;5001826;28;20053;-86
2022/03/07 09:34:02;;;;;;;11.35;6.93;;;4.60;99.90;;;;;;4993855;28;20132;-87
2022/03/07 09:36:28;;;;;;;13.27;6.63;;;4.70;99.90;;;;;;5012155;28;20456;-86
2022/03/07 09:38:54;;;;;;;11.02;6.35;;;4.70;99.90;;;;;;5008633;28;20045;-85
2022/03/07 09:41:20;;;;;;;10.50;5.80;;;4.80;99.90;;;;;;5030127;28;20092;-85
2022/03/07 09:43:46;;;;;;;12.82;6.30;;;4.90;99.90;;;;;;5019289;28;20525;-85
2022/03/07 09:46:14;;;;;;;14.27;7.25;;;5.00;99.90;;;;;;5034476;28;20370;-85
2022/03/07 09:48:40;;;;;;;12.40;6.55;;;5.10;99.90;;;;;;5013501;28;20191;-85
2022/03/07 09:51:06;;;;;;;11.25;5.93;;;5.10;99.90;;;;;;5020138;28;20037;-85
2022/03/07 09:53:32;;;;;;;14.43;6.72;;;5.10;99.90;;;;;;5010860;28;20402;-86
2022/03/07 09:55:57;;;;;;;11.35;6.05;;;5.30;99.90;;;;;;5014002;28;20045;-87
2022/03/07 09:58:23;;;;;;;9.38;5.20;;;5.40;99.90;;;;;;4997698;28;20045;-85
2022/03/07 10:00:49;;;;;;;11.38;5.53;;;5.40;99.90;;;;;;4993091;28;20042;-86
2022/03/07 10:03:18;;;;;;;10.25;6.40;;;5.50;99.90;;;;;;5011830;28;20120;-86
2022/03/07 10:05:46;;;;;;;11.00;6.03;;;5.70;99.90;;;;;;5011243;28;20128;-86
2022/03/07 10:08:22;;;;;;;11.00;6.43;;;5.70;99.90;;;;;;5024840;28;20041;-87
2022/03/07 10:10:50;;;;;;;9.73;6.32;;;5.60;99.90;;;;;;5027369;28;20390;-86
2022/03/07 10:13:16;;;;;;;10.02;5.80;;;5.60;99.90;;;;;;5004898;28;20057;-87
2022/03/07 10:15:42;;;;;;;10.00;5.50;;;5.60;99.90;;;;;;4988356;28;20046;-87
2022/03/07 10:18:16;;;;;;;9.40;4.97;;;5.70;99.90;;;;;;5008456;28;20080;-89
2022/03/07 10:20:53;;;;;;;8.60;4.45;;;5.80;99.90;;;;;;5010578;28;20088;-89
2022/03/07 10:23:20;;;;;;;8.32;4.53;;;6.00;99.90;;;;;;4987139;28;20057;-87
2022/03/07 10:25:46;;;;;;;9.40;4.70;;;6.10;99.90;;;;;;4998124;28;20084;-88
2022/03/07 10:28:12;;;;;;;9.13;4.50;;;6.20;99.90;;;;;;5009888;28;20515;-88
2022/03/07 10:30:39;;;;;;;9.32;5.32;;;6.20;99.90;;;;;;4994964;28;20397;-87
2022/03/07 10:33:13;;;;;;;8.05;5.03;;;6.30;99.90;;;;;;4989122;28;20026;-85
2022/03/07 10:35:47;;;;;;;8.52;4.18;;;6.40;99.90;;;;;;5007668;28;20489;-91
2022/03/07 10:38:18;;;;;;;7.88;4.35;;;6.50;99.90;;;;;;5024990;28;20441;-89
2022/03/07 10:40:51;;;;;;;9.00;3.75;;;6.70;99.90;;;;;;5019697;28;20465;-88
2022/03/07 10:43:17;;;;;;;8.35;4.57;;;6.90;99.90;;;;;;5014435;28;20549;-90
2022/03/07 10:45:50;;;;;;;10.75;4.95;;;7.10;99.90;;;;;;5004264;28;20053;-87
2022/03/07 10:48:17;;;;;;;10.60;6.13;;;7.10;99.90;;;;;;5018963;28;20041;-90
2022/03/07 10:50:48;;;;;;;10.23;4.80;;;7.10;99.90;;;;;;5011813;28;20072;-88
2022/03/07 10:53:14;;;;;;;10.90;5.45;;;7.00;99.90;;;;;;5011677;28;20046;-88
2022/03/07 10:55:40;;;;;;;10.35;6.03;;;6.90;99.90;;;;;;4989700;28;20041;-87
2022/03/07 10:58:07;;;;;;;9.00;4.90;;;6.90;99.90;;;;;;5013035;28;20050;-88
2022/03/07 11:00:33;;;;;;;7.82;4.15;;;7.00;99.90;;;;;;4987783;28;20149;-89
2022/03/07 11:03:00;;;;;;;7.85;4.53;;;7.10;99.90;;;;;;5006910;28;20037;-88
2022/03/07 11:05:26;;;;;;;7.97;4.40;;;7.20;99.90;;;;;;4987837;28;20053;-87
2022/03/07 11:07:52;;;;;;;10.48;4.88;;;7.40;99.90;;;;;;5005442;28;20041;-91
2022/03/07 11:10:18;;;;;;;8.45;3.90;;;7.50;99.90;;;;;;5002145;28;20042;-89
2022/03/07 11:12:44;;;;;;;8.00;3.80;;;7.60;99.90;;;;;;4989923;28;20073;-87
2022/03/07 11:15:14;;;;;;;8.00;3.92;;;7.70;99.90;;;;;;4990920;28;20117;-87
2022/03/07 11:17:43;;;;;;;8.43;3.92;;;7.80;99.90;;;;;;4986338;28;20046;-87
2022/03/07 11:20:14;;;;;;;7.25;3.53;;;7.70;99.90;;;;;;4982130;28;20038;-89
2022/03/07 11:22:40;;;;;;;;;;;7.70;99.90;;;;;;4999894;28;20050;-85
2022/03/07 11:25:07;;;;;;;9.40;3.92;;;7.60;99.90;;;;;;5000711;28;19926;-86
2022/03/07 11:27:35;;;;;;;6.75;3.47;;;7.50;99.90;;;;;;5005768;28;20042;-87
2022/03/07 11:30:18;;;;;;;9.85;3.88;;;7.50;99.90;;;;;;5004051;28;20077;-86
2022/03/07 11:32:45;;;;;;;7.38;3.80;;;7.30;99.50;;;;;;5007286;28;20050;-85
2022/03/07 11:35:11;;;;;;;8.48;3.63;;;7.20;99.90;;;;;;4993545;28;20038;-85
2022/03/07 11:37:37;;;;;;;8.00;3.58;;;7.20;99.90;;;;;;4990437;28;20105;-86
2022/03/07 11:40:19;;;;;;;8.05;4.18;;;7.40;99.90;;;;;;5000401;28;20113;-89
2022/03/07 11:42:45;;;;;;;7.03;3.35;;;7.50;99.90;;;;;;5004339;28;20077;-87
2022/03/07 11:45:18;;;;;;;7.88;3.28;;;7.60;97.60;;;;;;5005953;28;20518;-87
2022/03/07 11:47:46;;;;;;;8.25;3.30;;;7.60;96.10;;;;;;4984218;28;20050;-88
2022/03/07 11:50:15;;;;;;;7.65;3.47;;;7.70;94.40;;;;;;4999831;28;20162;-90
2022/03/07 11:52:41;;;;;;;7.47;3.53;;;7.80;91.00;;;;;;4989269;28;20102;-89
2022/03/07 11:55:19;;;;;;;7.20;3.28;;;7.80;94.50;;;;;;4985289;28;20034;-93
2022/03/07 11:58:00;;;;;;;7.75;3.40;;;7.80;87.00;;;;;;5002068;28;20304;-86
2022/03/07 12:00:31;;;;;;;6.35;3.13;;;7.80;85.70;;;;;;4994604;28;20085;-86
2022/03/07 12:02:59;;;;;;;6.82;3.22;;;7.80;87.80;;;;;;4997056;28;20410;-87
2022/03/07 12:05:32;;;;;;;5.78;2.72;;;7.90;83.60;;;;;;5003665;28;20069;-86
2022/03/07 12:08:18;;;;;;;7.65;3.50;;;7.90;79.50;;;;;;5004380;28;20044;-84
2022/03/07 12:11:02;;;;;;;6.63;3.20;;;7.80;75.40;;;;;;5004268;28;20251;-86
2022/03/07 12:13:36;;;;;;;6.85;3.00;;;7.70;78.30;;;;;;5008289;28;20041;-87
2022/03/07 12:16:02;;;;;;;6.82;3.10;;;7.70;79.40;;;;;;5007303;28;20056;-85
2022/03/07 12:18:29;;;;;;;7.80;2.88;;;7.60;79.20;;;;;;5000197;28;20527;-85
2022/03/07 12:21:00;;;;;;;6.05;3.08;;;7.70;78.40;;;;;;4971970;28;20323;-86
2022/03/07 12:23:27;;;;;;;;;;;7.70;74.90;;;;;;5006501;28;20091;-88
2022/03/07 12:26:06;;;;;;;6.95;3.40;;;7.80;79.90;;;;;;5008094;28;19921;-86
2022/03/07 12:28:35;;;;;;;7.70;3.60;;;7.90;76.20;;;;;;4976844;28;20045;-85
2022/03/07 12:31:02;;;;;;;6.40;2.80;;;7.90;77.90;;;;;;5023283;28;20045;-86
2022/03/07 12:33:29;;;;;;;6.80;3.08;;;7.90;74.40;;;;;;5009353;28;21156;-88
2022/03/07 12:36:10;;;;;;;5.80;2.50;;;8.00;77.00;;;;;;5010317;28;20077;-87
2022/03/07 12:38:46;;;;;;;6.88;2.83;;;8.00;71.30;;;;;;4987318;28;20046;-87